createdAt,value
2023-01-18T00:00:36.961Z,2.377929688
2023-01-18T00:01:38.832Z,2.377929688
2023-01-18T00:03:10.786Z,2.377929688
2023-01-18T00:04:11.650Z,2.367858887
2023-01-18T00:05:12.583Z,2.367858887
2023-01-18T00:06:13.448Z,2.367858887
2023-01-18T00:07:14.358Z,2.327575684
2023-01-18T00:08:15.245Z,2.367858887
2023-01-18T00:09:16.138Z,2.367858887
2023-01-18T00:10:17.008Z,2.357788086
2023-01-18T00:11:17.938Z,2.357788086
2023-01-18T00:12:18.946Z,2.377929688
2023-01-18T00:13:20.298Z,2.377929688
2023-01-18T00:14:21.164Z,2.367858887
2023-01-18T00:15:21.986Z,2.398071289
2023-01-18T00:16:22.955Z,2.398071289
2023-01-18T00:17:23.806Z,2.367858887
2023-01-18T00:18:24.664Z,2.367858887
2023-01-18T00:19:25.523Z,2.367858887
2023-01-18T00:20:26.322Z,2.398071289
2023-01-18T00:21:27.312Z,2.398071289
2023-01-18T00:22:28.343Z,2.40814209
2023-01-18T00:23:29.911Z,2.438354492
2023-01-18T00:24:30.997Z,2.438354492
2023-01-18T00:25:31.827Z,2.448425293
2023-01-18T00:26:32.723Z,2.478637695
2023-01-18T00:27:33.601Z,2.468566895
2023-01-18T00:28:34.473Z,2.508850098
2023-01-18T00:29:35.517Z,2.468566895
2023-01-18T00:30:36.239Z,2.468566895
2023-01-18T00:31:37.192Z,2.468566895
2023-01-18T00:32:38.580Z,2.448425293
2023-01-18T00:34:11.329Z,2.448425293
2023-01-18T00:35:12.321Z,2.478637695
2023-01-18T00:36:13.187Z,2.478637695
2023-01-18T00:37:14.026Z,2.498779297
2023-01-18T00:38:15.013Z,2.478637695
2023-01-18T00:39:15.968Z,2.448425293
2023-01-18T00:40:17.471Z,2.438354492
2023-01-18T00:41:18.258Z,2.448425293
2023-01-18T00:42:19.118Z,2.468566895
2023-01-18T00:43:20.821Z,2.478637695
2023-01-18T00:44:21.826Z,2.508850098
2023-01-18T00:45:22.726Z,2.508850098
2023-01-18T00:46:23.630Z,2.508850098
2023-01-18T00:47:24.701Z,2.528991699
2023-01-18T00:48:25.605Z,2.549133301
2023-01-18T00:49:26.531Z,2.579345703
2023-01-18T00:50:27.425Z,2.559204102
2023-01-18T00:51:28.261Z,2.579345703
2023-01-18T00:52:29.720Z,2.579345703
2023-01-18T00:53:31.359Z,2.589416504
2023-01-18T00:54:32.305Z,2.589416504
2023-01-18T00:55:33.274Z,2.619628906
2023-01-18T00:56:34.181Z,2.579345703
2023-01-18T00:57:35.811Z,2.579345703
2023-01-18T00:58:36.720Z,2.559204102
2023-01-18T00:59:37.636Z,2.549133301
2023-01-18T01:01:09.222Z,2.549133301
2023-01-18T01:02:09.953Z,2.549133301
2023-01-18T01:03:11.192Z,2.528991699
2023-01-18T01:04:12.193Z,2.508850098
2023-01-18T01:05:13.741Z,2.508850098
2023-01-18T01:06:14.725Z,2.498779297
2023-01-18T01:07:15.523Z,2.508850098
2023-01-18T01:08:16.398Z,2.498779297
2023-01-18T01:09:17.295Z,2.508850098
2023-01-18T01:10:18.180Z,2.528991699
2023-01-18T01:11:19.100Z,2.549133301
2023-01-18T01:12:20.753Z,2.528991699
2023-01-18T01:13:21.586Z,2.508850098
2023-01-18T01:14:23.215Z,2.508850098
2023-01-18T01:15:24.071Z,2.498779297
2023-01-18T01:16:25.013Z,2.549133301
2023-01-18T01:17:25.809Z,2.559204102
2023-01-18T01:18:26.631Z,2.549133301
2023-01-18T01:19:27.747Z,2.549133301
2023-01-18T01:20:28.672Z,2.549133301
2023-01-18T01:21:29.649Z,2.579345703
2023-01-18T01:22:30.668Z,2.559204102
2023-01-18T01:23:32.298Z,2.559204102
2023-01-18T01:24:33.139Z,2.579345703
2023-01-18T01:25:33.974Z,2.549133301
2023-01-18T01:26:34.830Z,2.559204102
2023-01-18T01:27:36.405Z,2.549133301
2023-01-18T01:28:37.270Z,2.559204102
2023-01-18T01:30:08.502Z,2.559204102
2023-01-18T01:31:09.506Z,2.559204102
2023-01-18T01:32:11.323Z,2.559204102
2023-01-18T01:33:12.237Z,2.579345703
2023-01-18T01:34:13.696Z,2.589416504
2023-01-18T01:35:15.279Z,2.609558105
2023-01-18T01:36:16.112Z,2.579345703
2023-01-18T01:37:17.021Z,2.559204102
2023-01-18T01:38:17.949Z,2.549133301
2023-01-18T01:39:18.865Z,2.559204102
2023-01-18T01:40:20.298Z,2.549133301
2023-01-18T01:41:21.171Z,2.549133301
2023-01-18T01:42:22.138Z,2.528991699
2023-01-18T01:43:23.019Z,2.508850098
2023-01-18T01:44:24.771Z,2.478637695
2023-01-18T01:45:25.648Z,2.478637695
2023-01-18T01:46:26.493Z,2.468566895
2023-01-18T01:47:27.723Z,2.478637695
2023-01-18T01:48:28.585Z,2.468566895
2023-01-18T01:49:29.495Z,2.478637695
2023-01-18T01:50:30.319Z,2.478637695
2023-01-18T01:51:31.148Z,2.448425293
2023-01-18T01:52:32.118Z,2.448425293
2023-01-18T01:53:33.011Z,2.438354492
2023-01-18T01:54:34.751Z,2.428283691
2023-01-18T01:55:35.588Z,2.438354492
2023-01-18T01:56:36.395Z,2.448425293
2023-01-18T01:57:37.745Z,2.40814209
2023-01-18T01:59:09.124Z,2.398071289
2023-01-18T02:00:09.999Z,2.428283691
2023-01-18T02:01:10.901Z,2.40814209
2023-01-18T02:02:11.881Z,2.398071289
2023-01-18T02:03:13.329Z,2.377929688
2023-01-18T02:04:14.811Z,2.377929688
2023-01-18T02:05:15.786Z,2.377929688
2023-01-18T02:06:16.613Z,2.398071289
2023-01-18T02:07:17.406Z,2.428283691
2023-01-18T02:08:18.231Z,2.438354492
2023-01-18T02:09:19.197Z,2.438354492
2023-01-18T02:10:20.800Z,2.428283691
2023-01-18T02:11:21.688Z,2.428283691
2023-01-18T02:12:22.616Z,2.40814209
2023-01-18T02:13:23.453Z,2.428283691
2023-01-18T02:14:25.258Z,2.428283691
2023-01-18T02:15:26.148Z,2.438354492
2023-01-18T02:16:27.101Z,2.428283691
2023-01-18T02:17:28.018Z,2.438354492
2023-01-18T02:18:29.085Z,2.448425293
2023-01-18T02:19:30.003Z,2.478637695
2023-01-18T02:20:30.904Z,2.508850098
2023-01-18T02:21:31.861Z,2.549133301
2023-01-18T02:22:32.732Z,2.579345703
2023-01-18T02:23:33.570Z,2.589416504
2023-01-18T02:24:35.249Z,2.609558105
2023-01-18T02:25:36.151Z,2.589416504
2023-01-18T02:26:37.563Z,2.559204102
2023-01-18T02:28:08.782Z,2.549133301
2023-01-18T02:29:09.630Z,2.559204102
2023-01-18T02:30:10.648Z,2.559204102
2023-01-18T02:31:11.650Z,2.549133301
2023-01-18T02:32:12.486Z,2.579345703
2023-01-18T02:33:13.346Z,2.549133301
2023-01-18T02:34:14.775Z,2.549133301
2023-01-18T02:35:15.605Z,2.559204102
2023-01-18T02:36:16.494Z,2.549133301
2023-01-18T02:37:17.408Z,2.549133301
2023-01-18T02:38:18.379Z,2.559204102
2023-01-18T02:39:19.307Z,2.579345703
2023-01-18T02:40:20.081Z,2.559204102
2023-01-18T02:41:21.724Z,2.549133301
2023-01-18T02:42:22.602Z,2.508850098
2023-01-18T02:43:23.556Z,2.528991699
2023-01-18T02:44:25.301Z,2.528991699
2023-01-18T02:45:26.684Z,2.549133301
2023-01-18T02:46:27.905Z,2.549133301
2023-01-18T02:47:28.883Z,2.559204102
2023-01-18T02:48:29.895Z,2.579345703
2023-01-18T02:49:30.794Z,2.609558105
2023-01-18T02:50:31.611Z,2.629699707
2023-01-18T02:51:32.684Z,2.659912109
2023-01-18T02:52:33.624Z,2.659912109
2023-01-18T02:53:34.676Z,2.629699707
2023-01-18T02:54:36.321Z,2.629699707
2023-01-18T02:56:07.949Z,2.680053711
2023-01-18T02:57:08.891Z,2.690124512
2023-01-18T02:58:09.802Z,2.680053711
2023-01-18T02:59:10.765Z,2.680053711
2023-01-18T03:00:11.693Z,2.649841309
2023-01-18T03:01:12.682Z,2.649841309
2023-01-18T03:02:13.443Z,2.659912109
2023-01-18T03:03:15.242Z,2.659912109
2023-01-18T03:04:16.888Z,2.659912109
2023-01-18T03:05:17.835Z,2.659912109
2023-01-18T03:06:18.729Z,2.710266113
2023-01-18T03:07:19.596Z,2.659912109
2023-01-18T03:08:20.478Z,2.649841309
2023-01-18T03:09:21.488Z,2.659912109
2023-01-18T03:10:22.445Z,2.649841309
2023-01-18T03:11:24.278Z,2.629699707
2023-01-18T03:12:25.136Z,2.649841309
2023-01-18T03:13:26.071Z,2.649841309
2023-01-18T03:14:27.796Z,2.629699707
2023-01-18T03:15:29.012Z,2.649841309
2023-01-18T03:16:29.854Z,2.649841309
2023-01-18T03:17:30.715Z,2.680053711
2023-01-18T03:18:31.612Z,2.710266113
2023-01-18T03:19:32.596Z,2.730407715
2023-01-18T03:20:33.554Z,2.760620117
2023-01-18T03:21:34.544Z,2.760620117
2023-01-18T03:22:36.263Z,2.80090332
2023-01-18T03:24:07.744Z,2.810974121
2023-01-18T03:25:09.301Z,2.79083252
2023-01-18T03:26:10.237Z,2.79083252
2023-01-18T03:27:11.662Z,2.80090332
2023-01-18T03:28:12.857Z,2.79083252
2023-01-18T03:29:13.741Z,2.80090332
2023-01-18T03:30:14.652Z,2.770690918
2023-01-18T03:31:15.718Z,2.760620117
2023-01-18T03:32:17.312Z,2.79083252
2023-01-18T03:33:19.189Z,2.770690918
2023-01-18T03:34:20.044Z,2.79083252
2023-01-18T03:35:21.717Z,2.710266113
2023-01-18T03:36:22.753Z,2.690124512
2023-01-18T03:37:23.606Z,2.690124512
2023-01-18T03:38:24.510Z,2.680053711
2023-01-18T03:39:25.386Z,2.659912109
2023-01-18T03:40:26.152Z,2.680053711
2023-01-18T03:41:27.094Z,2.730407715
2023-01-18T03:42:27.772Z,2.730407715
2023-01-18T03:43:28.751Z,2.730407715
2023-01-18T03:44:30.318Z,2.730407715
2023-01-18T03:45:31.258Z,2.760620117
2023-01-18T03:46:32.300Z,2.770690918
2023-01-18T03:47:33.093Z,2.79083252
2023-01-18T03:48:33.989Z,2.79083252
2023-01-18T03:49:34.964Z,2.80090332
2023-01-18T03:50:35.792Z,2.861328125
2023-01-18T03:52:07.310Z,2.861328125
2023-01-18T03:53:08.192Z,2.871398926
2023-01-18T03:54:09.162Z,2.891540527
2023-01-18T03:55:10.708Z,2.871398926
2023-01-18T03:56:11.557Z,2.871398926
2023-01-18T03:57:12.430Z,2.871398926
2023-01-18T03:58:13.343Z,2.891540527
2023-01-18T03:59:14.369Z,2.901611328
2023-01-18T04:00:15.721Z,2.92175293
2023-01-18T04:01:16.766Z,2.92175293
2023-01-18T04:02:17.779Z,2.92175293
2023-01-18T04:03:19.289Z,2.941894531
2023-01-18T04:04:20.249Z,2.92175293
2023-01-18T04:05:21.770Z,2.941894531
2023-01-18T04:06:22.670Z,2.941894531
2023-01-18T04:07:23.484Z,2.951965332
2023-01-18T04:08:24.388Z,2.972106934
2023-01-18T04:09:25.305Z,2.982177734
2023-01-18T04:10:26.247Z,3.012390137
2023-01-18T04:11:27.778Z,3.042602539
2023-01-18T04:12:28.799Z,3.072814941
2023-01-18T04:13:29.724Z,3.082885742
2023-01-18T04:14:30.569Z,3.072814941
2023-01-18T04:15:32.303Z,3.103027344
2023-01-18T04:16:33.212Z,3.072814941
2023-01-18T04:17:34.188Z,3.05267334
2023-01-18T04:18:35.223Z,3.012390137
2023-01-18T04:20:06.898Z,2.982177734
2023-01-18T04:21:07.952Z,2.951965332
2023-01-18T04:22:09.792Z,2.951965332
2023-01-18T04:23:09.848Z,2.951965332
2023-01-18T04:24:10.961Z,2.951965332
2023-01-18T04:25:12.712Z,2.972106934
2023-01-18T04:26:13.672Z,2.982177734
2023-01-18T04:27:14.649Z,2.982177734
2023-01-18T04:28:15.696Z,2.992248535
2023-01-18T04:29:16.789Z,2.992248535
2023-01-18T04:30:18.066Z,2.871398926
2023-01-18T04:31:18.938Z,2.810974121
2023-01-18T04:32:20.578Z,2.80090332
2023-01-18T04:33:21.707Z,2.831115723
2023-01-18T04:34:22.957Z,2.831115723
2023-01-18T04:35:24.668Z,2.810974121
2023-01-18T04:36:25.421Z,2.810974121
2023-01-18T04:37:26.539Z,2.80090332
2023-01-18T04:38:27.479Z,2.80090332
2023-01-18T04:39:28.160Z,2.810974121
2023-01-18T04:40:29.211Z,2.80090332
2023-01-18T04:41:29.981Z,2.80090332
2023-01-18T04:42:30.844Z,2.80090332
2023-01-18T04:43:32.008Z,2.79083252
2023-01-18T04:44:32.735Z,2.79083252
2023-01-18T04:45:34.076Z,2.80090332
2023-01-18T04:46:35.270Z,2.80090332
2023-01-18T04:48:06.556Z,2.79083252
2023-01-18T04:49:07.507Z,2.760620117
2023-01-18T04:50:08.404Z,2.760620117
2023-01-18T04:51:09.127Z,2.770690918
2023-01-18T04:52:09.866Z,2.760620117
2023-01-18T04:53:10.593Z,2.760620117
2023-01-18T04:54:11.548Z,2.760620117
2023-01-18T04:55:13.248Z,2.740478516
2023-01-18T04:56:13.965Z,2.760620117
2023-01-18T04:57:14.843Z,2.740478516
2023-01-18T04:58:15.541Z,2.740478516
2023-01-18T04:59:16.534Z,2.740478516
2023-01-18T05:00:17.301Z,2.740478516
2023-01-18T05:01:18.427Z,2.79083252
2023-01-18T05:02:19.090Z,2.80090332
2023-01-18T05:03:19.732Z,2.79083252
2023-01-18T05:04:20.621Z,2.760620117
2023-01-18T05:05:22.380Z,2.760620117
2023-01-18T05:06:23.483Z,2.740478516
2023-01-18T05:07:24.297Z,2.740478516
2023-01-18T05:08:25.201Z,2.760620117
2023-01-18T05:09:25.877Z,2.760620117
2023-01-18T05:10:26.707Z,2.770690918
2023-01-18T05:11:27.959Z,2.79083252
2023-01-18T05:12:29.695Z,2.80090332
2023-01-18T05:13:30.488Z,2.740478516
2023-01-18T05:14:31.159Z,2.710266113
2023-01-18T05:15:32.751Z,2.730407715
2023-01-18T05:16:33.620Z,2.680053711
2023-01-18T05:17:34.544Z,2.649841309
2023-01-18T05:19:05.921Z,2.629699707
2023-01-18T05:20:06.859Z,2.579345703
2023-01-18T05:21:07.567Z,2.559204102
2023-01-18T05:22:08.465Z,2.559204102
2023-01-18T05:23:09.379Z,2.589416504
2023-01-18T05:24:10.143Z,2.559204102
2023-01-18T05:25:11.835Z,2.528991699
2023-01-18T05:26:12.383Z,2.559204102
2023-01-18T05:27:13.181Z,2.559204102
2023-01-18T05:28:14.168Z,2.508850098
2023-01-18T05:29:14.990Z,2.508850098
2023-01-18T05:30:16.423Z,2.468566895
2023-01-18T05:31:17.173Z,2.468566895
2023-01-18T05:32:18.202Z,2.448425293
2023-01-18T05:33:19.093Z,2.438354492
2023-01-18T05:34:20.019Z,2.478637695
2023-01-18T05:35:21.713Z,2.508850098
2023-01-18T05:36:22.411Z,2.528991699
2023-01-18T05:37:23.266Z,2.549133301
2023-01-18T05:38:24.059Z,2.579345703
2023-01-18T05:39:24.800Z,2.609558105
2023-01-18T05:40:25.698Z,2.629699707
2023-01-18T05:41:26.377Z,2.659912109
2023-01-18T05:42:28.222Z,2.690124512
2023-01-18T05:43:29.133Z,2.710266113
2023-01-18T05:44:30.037Z,2.740478516
2023-01-18T05:45:31.801Z,2.760620117
2023-01-18T05:46:32.589Z,2.80090332
2023-01-18T05:47:33.520Z,2.831115723
2023-01-18T05:48:34.306Z,2.861328125
2023-01-18T05:50:05.884Z,2.871398926
2023-01-18T05:51:06.775Z,2.891540527
2023-01-18T05:52:07.795Z,2.901611328
2023-01-18T05:53:08.520Z,2.92175293
2023-01-18T05:54:09.435Z,2.92175293
2023-01-18T05:55:10.247Z,2.951965332
2023-01-18T05:56:11.845Z,2.951965332
2023-01-18T05:57:12.849Z,2.972106934
2023-01-18T05:58:13.882Z,2.982177734
2023-01-18T05:59:14.566Z,2.992248535
2023-01-18T06:00:15.632Z,2.992248535
2023-01-18T06:01:16.600Z,2.982177734
2023-01-18T06:02:17.425Z,2.992248535
2023-01-18T06:03:18.222Z,3.022460938
2023-01-18T06:04:19.628Z,3.05267334
2023-01-18T06:05:20.566Z,3.072814941
2023-01-18T06:06:22.170Z,3.082885742
2023-01-18T06:07:23.141Z,3.103027344
2023-01-18T06:08:24.233Z,3.123168945
2023-01-18T06:09:25.022Z,3.103027344
2023-01-18T06:10:25.830Z,3.123168945
2023-01-18T06:11:26.894Z,3.103027344
2023-01-18T06:12:28.655Z,3.123168945
2023-01-18T06:13:29.781Z,3.133239746
2023-01-18T06:14:30.638Z,3.133239746
2023-01-18T06:15:32.218Z,3.133239746
2023-01-18T06:16:33.060Z,3.153381348
2023-01-18T06:17:33.662Z,3.153381348
2023-01-18T06:19:05.275Z,3.082885742
2023-01-18T06:20:06.161Z,3.012390137
2023-01-18T06:21:06.926Z,2.941894531
2023-01-18T06:22:07.827Z,2.871398926
2023-01-18T06:23:08.472Z,2.80090332
2023-01-18T06:24:09.194Z,2.80090332
2023-01-18T06:25:10.213Z,2.80090332
2023-01-18T06:26:11.778Z,2.770690918
2023-01-18T06:27:12.517Z,2.730407715
2023-01-18T06:28:13.400Z,2.659912109
2023-01-18T06:29:14.088Z,2.659912109
2023-01-18T06:30:14.896Z,2.649841309
2023-01-18T06:31:15.905Z,2.649841309
2023-01-18T06:32:16.589Z,2.649841309
2023-01-18T06:33:17.372Z,2.629699707
2023-01-18T06:34:19.071Z,2.619628906
2023-01-18T06:35:19.732Z,2.659912109
2023-01-18T06:36:21.193Z,2.680053711
2023-01-18T06:37:22.006Z,2.730407715
2023-01-18T06:38:22.800Z,2.760620117
2023-01-18T06:39:23.559Z,2.79083252
2023-01-18T06:40:24.278Z,2.80090332
2023-01-18T06:41:25.024Z,2.80090332
2023-01-18T06:42:26.594Z,2.810974121
2023-01-18T06:43:27.785Z,2.810974121
2023-01-18T06:44:28.482Z,2.831115723
2023-01-18T06:45:29.765Z,2.841186523
2023-01-18T06:46:31.130Z,2.861328125
2023-01-18T06:47:32.040Z,2.871398926
2023-01-18T06:48:32.790Z,2.871398926
2023-01-18T06:49:33.475Z,2.891540527
2023-01-18T06:51:04.787Z,2.901611328
2023-01-18T06:52:05.650Z,2.941894531
2023-01-18T06:53:06.679Z,2.92175293
2023-01-18T06:54:07.368Z,2.941894531
2023-01-18T06:55:08.244Z,2.951965332
2023-01-18T06:56:09.689Z,2.972106934
2023-01-18T06:57:10.407Z,2.992248535
2023-01-18T06:58:11.604Z,3.012390137
2023-01-18T06:59:12.608Z,2.992248535
2023-01-18T07:00:13.291Z,2.992248535
2023-01-18T07:01:14.222Z,3.012390137
2023-01-18T07:02:14.896Z,3.022460938
2023-01-18T07:03:15.749Z,3.05267334
2023-01-18T07:04:16.638Z,3.072814941
2023-01-18T07:05:17.202Z,3.072814941
2023-01-18T07:06:18.819Z,3.082885742
2023-01-18T07:07:19.499Z,3.123168945
2023-01-18T07:08:21.304Z,3.133239746
2023-01-18T07:09:21.976Z,3.133239746
2023-01-18T07:10:22.698Z,3.133239746
2023-01-18T07:11:23.375Z,3.133239746
2023-01-18T07:12:24.055Z,3.133239746
2023-01-18T07:13:24.976Z,3.133239746
2023-01-18T07:14:25.802Z,3.153381348
2023-01-18T07:15:26.694Z,3.153381348
2023-01-18T07:16:28.113Z,3.153381348
2023-01-18T07:17:28.840Z,3.133239746
2023-01-18T07:18:29.997Z,3.153381348
2023-01-18T07:19:30.589Z,3.153381348
2023-01-18T07:20:31.790Z,3.163452148
2023-01-18T07:21:32.719Z,3.153381348
2023-01-18T07:22:33.966Z,3.153381348
2023-01-18T07:24:05.233Z,3.153381348
2023-01-18T07:25:06.108Z,3.163452148
2023-01-18T07:26:07.761Z,3.163452148
2023-01-18T07:27:08.472Z,3.163452148
2023-01-18T07:28:09.189Z,3.193664551
2023-01-18T07:29:09.920Z,3.163452148
2023-01-18T07:30:10.949Z,3.163452148
2023-01-18T07:31:11.852Z,3.193664551
2023-01-18T07:32:12.793Z,3.193664551
2023-01-18T07:33:14.128Z,3.173522949
2023-01-18T07:34:15.857Z,3.163452148
2023-01-18T07:35:16.842Z,3.133239746
2023-01-18T07:36:18.698Z,3.123168945
2023-01-18T07:37:19.402Z,3.123168945
2023-01-18T07:38:20.085Z,3.133239746
2023-01-18T07:39:20.930Z,3.153381348
2023-01-18T07:40:21.578Z,3.163452148
2023-01-18T07:41:22.502Z,3.153381348
2023-01-18T07:42:23.193Z,3.173522949
2023-01-18T07:43:24.624Z,3.203735352
2023-01-18T07:44:25.347Z,3.233947754
2023-01-18T07:45:26.172Z,3.254089355
2023-01-18T07:46:27.765Z,3.264160156
2023-01-18T07:47:28.425Z,3.31451416
2023-01-18T07:48:29.390Z,3.334655762
2023-01-18T07:49:30.229Z,3.344726563
2023-01-18T07:50:30.902Z,3.344726563
2023-01-18T07:51:31.695Z,3.344726563
2023-01-18T07:52:32.389Z,3.344726563
2023-01-18T07:53:33.697Z,3.344726563
2023-01-18T07:55:06.788Z,3.284301758
2023-01-18T07:56:06.692Z,3.264160156
2023-01-18T07:57:07.587Z,3.193664551
2023-01-18T07:58:09.159Z,3.163452148
2023-01-18T07:59:09.986Z,3.153381348
2023-01-18T08:00:10.951Z,3.123168945
2023-01-18T08:01:12.081Z,3.05267334
2023-01-18T08:02:12.846Z,3.022460938
2023-01-18T08:03:13.626Z,3.012390137
2023-01-18T08:04:14.401Z,2.992248535
2023-01-18T08:05:15.265Z,2.941894531
2023-01-18T08:06:16.758Z,2.871398926
2023-01-18T08:07:17.624Z,2.831115723
2023-01-18T08:08:19.180Z,2.80090332
2023-01-18T08:09:20.063Z,2.810974121
2023-01-18T08:10:20.875Z,2.80090332
2023-01-18T08:11:21.722Z,2.770690918
2023-01-18T08:12:22.515Z,2.740478516
2023-01-18T08:13:23.355Z,2.629699707
2023-01-18T08:14:24.165Z,2.619628906
2023-01-18T08:15:25.034Z,2.629699707
2023-01-18T08:16:26.802Z,2.629699707
2023-01-18T08:17:27.856Z,2.659912109
2023-01-18T08:18:28.743Z,2.649841309
2023-01-18T08:19:29.603Z,2.629699707
2023-01-18T08:20:30.657Z,2.579345703
2023-01-18T08:21:31.525Z,2.579345703
2023-01-18T08:22:33.251Z,2.589416504
2023-01-18T08:24:04.529Z,2.559204102
2023-01-18T08:25:05.394Z,2.579345703
2023-01-18T08:26:06.245Z,2.629699707
2023-01-18T08:27:07.689Z,2.609558105
2023-01-18T08:28:08.548Z,2.609558105
2023-01-18T08:29:09.439Z,2.619628906
2023-01-18T08:30:10.279Z,2.629699707
2023-01-18T08:31:11.290Z,2.659912109
2023-01-18T08:32:11.976Z,2.710266113
2023-01-18T08:33:12.816Z,2.730407715
2023-01-18T08:34:13.664Z,2.79083252
2023-01-18T08:35:15.155Z,2.79083252
2023-01-18T08:36:15.992Z,2.80090332
2023-01-18T08:37:17.649Z,2.831115723
2023-01-18T08:38:18.502Z,2.861328125
2023-01-18T08:39:19.383Z,2.810974121
2023-01-18T08:40:20.198Z,2.80090332
2023-01-18T08:41:21.051Z,2.770690918
2023-01-18T08:42:21.916Z,2.730407715
2023-01-18T08:43:23.632Z,2.680053711
2023-01-18T08:44:24.494Z,2.680053711
2023-01-18T08:45:25.290Z,2.629699707
2023-01-18T08:46:26.169Z,2.619628906
2023-01-18T08:47:27.891Z,2.629699707
2023-01-18T08:48:28.842Z,2.619628906
2023-01-18T08:49:29.725Z,2.528991699
2023-01-18T08:50:30.637Z,2.508850098
2023-01-18T08:51:31.608Z,2.448425293
2023-01-18T08:52:32.882Z,2.40814209
2023-01-18T08:54:04.152Z,2.428283691
2023-01-18T08:55:05.042Z,2.438354492
2023-01-18T08:56:05.853Z,2.40814209
2023-01-18T08:57:07.729Z,2.398071289
2023-01-18T08:58:08.478Z,2.377929688
2023-01-18T08:59:09.398Z,2.377929688
2023-01-18T09:00:10.225Z,2.40814209
2023-01-18T09:01:11.844Z,2.438354492
2023-01-18T09:02:12.572Z,2.428283691
2023-01-18T09:03:13.394Z,2.438354492
2023-01-18T09:04:14.179Z,2.40814209
2023-01-18T09:05:15.029Z,2.428283691
2023-01-18T09:06:15.906Z,2.438354492
2023-01-18T09:07:17.748Z,2.448425293
2023-01-18T09:08:18.566Z,2.448425293
2023-01-18T09:09:19.416Z,2.438354492
2023-01-18T09:10:20.294Z,2.428283691
2023-01-18T09:11:21.109Z,2.428283691
2023-01-18T09:12:21.986Z,2.478637695
2023-01-18T09:13:23.644Z,2.498779297
2023-01-18T09:14:24.535Z,2.498779297
2023-01-18T09:15:25.507Z,2.478637695
2023-01-18T09:16:26.547Z,2.468566895
2023-01-18T09:17:28.252Z,2.478637695
2023-01-18T09:18:29.170Z,2.508850098
2023-01-18T09:19:30.026Z,2.549133301
2023-01-18T09:20:30.948Z,2.609558105
2023-01-18T09:21:32.784Z,2.629699707
2023-01-18T09:23:04.271Z,2.649841309
2023-01-18T09:24:05.096Z,2.690124512
2023-01-18T09:25:06.144Z,2.740478516
2023-01-18T09:26:07.797Z,2.770690918
2023-01-18T09:27:09.273Z,2.79083252
2023-01-18T09:28:10.151Z,2.79083252
2023-01-18T09:29:10.972Z,2.861328125
2023-01-18T09:30:11.903Z,2.941894531
2023-01-18T09:31:12.860Z,2.992248535
2023-01-18T09:32:14.360Z,3.022460938
2023-01-18T09:33:15.295Z,3.022460938
2023-01-18T09:34:19.745Z,3.022460938
2023-01-18T09:35:17.713Z,3.022460938
2023-01-18T09:36:18.599Z,3.042602539
2023-01-18T09:37:20.284Z,3.082885742
2023-01-18T09:38:21.769Z,3.103027344
2023-01-18T09:39:22.703Z,3.133239746
2023-01-18T09:40:23.501Z,3.133239746
2023-01-18T09:41:24.436Z,3.103027344
2023-01-18T09:42:25.420Z,3.123168945
2023-01-18T09:43:26.300Z,3.133239746
2023-01-18T09:44:27.205Z,3.103027344
2023-01-18T09:45:28.344Z,3.05267334
2023-01-18T09:46:29.447Z,3.05267334
2023-01-18T09:47:31.310Z,3.042602539
2023-01-18T09:49:02.999Z,3.022460938
2023-01-18T09:50:03.932Z,3.072814941
2023-01-18T09:51:04.866Z,3.103027344
2023-01-18T09:52:05.855Z,3.153381348
2023-01-18T09:53:06.877Z,3.193664551
2023-01-18T09:54:08.811Z,3.254089355
2023-01-18T09:55:09.675Z,3.304443359
2023-01-18T09:56:10.666Z,3.344726563
2023-01-18T09:57:12.296Z,3.374938965
2023-01-18T09:58:13.279Z,3.354797363
2023-01-18T09:59:14.348Z,3.374938965
2023-01-18T10:00:15.085Z,3.405151367
2023-01-18T10:01:16.246Z,3.405151367
2023-01-18T10:02:17.204Z,3.43536377
2023-01-18T10:03:18.044Z,3.485717773
2023-01-18T10:04:19.123Z,3.515930176
2023-01-18T10:05:20.779Z,3.536071777
2023-01-18T10:06:21.645Z,3.626708984
2023-01-18T10:07:23.326Z,3.707275391
2023-01-18T10:08:24.334Z,3.767700195
2023-01-18T10:09:25.305Z,3.807983398
2023-01-18T10:10:26.225Z,3.878479004
2023-01-18T10:11:27.241Z,3.918762207
2023-01-18T10:12:28.288Z,3.948974609
2023-01-18T10:13:29.771Z,3.989257813
2023-01-18T10:14:30.703Z,4.039611816
2023-01-18T10:15:32.014Z,4.100036621
2023-01-18T10:17:03.330Z,4.130249023
2023-01-18T10:18:04.715Z,4.170532227
2023-01-18T10:19:05.809Z,4.21081543
2023-01-18T10:20:06.856Z,4.251098633
2023-01-18T10:21:07.730Z,4.281311035
2023-01-18T10:22:08.573Z,4.291381836
2023-01-18T10:23:09.338Z,4.311523438
2023-01-18T10:24:11.263Z,4.291381836
2023-01-18T10:25:12.187Z,4.321594238
2023-01-18T10:26:13.060Z,4.34173584
2023-01-18T10:27:14.776Z,4.382019043
2023-01-18T10:28:15.574Z,4.392089844
2023-01-18T10:29:16.429Z,4.392089844
2023-01-18T10:30:17.424Z,4.422302246
2023-01-18T10:31:18.442Z,4.442443848
2023-01-18T10:32:19.235Z,4.442443848
2023-01-18T10:33:20.110Z,4.432373047
2023-01-18T10:34:20.971Z,4.442443848
2023-01-18T10:35:22.846Z,4.442443848
2023-01-18T10:36:23.720Z,4.47265625
2023-01-18T10:37:25.328Z,4.492797852
2023-01-18T10:38:26.223Z,4.47265625
2023-01-18T10:39:27.036Z,4.392089844
2023-01-18T10:40:28.162Z,4.361877441
2023-01-18T10:41:29.176Z,4.321594238
2023-01-18T10:42:30.080Z,4.321594238
2023-01-18T10:43:31.964Z,4.351806641
2023-01-18T10:45:03.139Z,4.361877441
2023-01-18T10:46:04.154Z,4.392089844
2023-01-18T10:47:05.157Z,4.432373047
2023-01-18T10:48:06.737Z,4.462585449
2023-01-18T10:49:07.688Z,4.462585449
2023-01-18T10:50:08.660Z,4.47265625
2023-01-18T10:51:09.595Z,4.492797852
2023-01-18T10:52:10.602Z,4.502868652
2023-01-18T10:53:11.557Z,4.512939453
2023-01-18T10:54:12.494Z,4.543151855
2023-01-18T10:55:13.465Z,4.563293457
2023-01-18T10:56:14.393Z,4.573364258
2023-01-18T10:57:15.453Z,4.573364258
2023-01-18T10:58:17.320Z,4.573364258
2023-01-18T10:59:18.219Z,4.573364258
2023-01-18T11:00:19.256Z,4.563293457
2023-01-18T11:01:20.289Z,4.543151855
2023-01-18T11:02:21.119Z,4.492797852
2023-01-18T11:03:22.022Z,4.462585449
2023-01-18T11:04:22.995Z,4.442443848
2023-01-18T11:05:24.778Z,4.442443848
2023-01-18T11:06:25.654Z,4.462585449
2023-01-18T11:07:26.750Z,4.492797852
2023-01-18T11:08:28.207Z,4.502868652
2023-01-18T11:09:29.321Z,4.492797852
2023-01-18T11:10:30.224Z,4.492797852
2023-01-18T11:11:31.546Z,4.492797852
2023-01-18T11:13:03.095Z,4.492797852